メインページ
METAR-TAF:

METAR-TAF

空港 :

アシガバート空港

アシガバート, トルクメニスタン

緯度: 37-59N, 経度: 058-22E, 海抜: 211m

現時点の気象観測

当レポートは39分前の18:00(UTC)に作成
西/北西の風 14kt
気温 28°C
湿度 42%
気圧 1016 hPa
視程10km以上

METAR: UTAA 261800Z 30014KT 9999 NSC 28/14 Q1016 R88/70D NOSIG

時間: 23:39 (18:39 UTC)

予報

当レポートは1時間54分前の16:45(UTC)に作成
予報は26日の 18時(UTC)から 27日の 18時(UTC)まで有効
西/北西の風 14kt
視程: 6000m
高度5000ftの雲は散在している
26日の 18時(UTC)から 26日の 21時(UTC)まで一時的に
西の風 10kt、最大20ktの突風を伴う
27日の 04時(UTC)から 27日の 06時(UTC)まで徐々に
西/北西の風 18kt
27日の 08時(UTC)から 27日の 14時(UTC)まで一時的に
の風 14kt、最大24ktの突風を伴う
視程: 3000m
低いドリフト塵

TAF: UTAA 261645Z 2618/2718 30014KT 6000 SCT050 TEMPO 2618/2621 26010G20KT BECMG 2704/2706 30018KT TEMPO 2708/2714 36014G24KT 3000 DRDU

4,000以上の空港の気象観測と天気予報(METAR報とTAF報)

利用可能な観測所は地図上に黄色い丸と赤い丸で示す。

丸の上にカーソルを重ねると観測所名を参照できる。

次にクリックすると気象観測と天気予報を参照できる。

マップの切り替え:黒色「×」印の緑ボタンをクリックして拡大、「-」印の緑ボタンをクリックして縮小、緑色の三角印をクリックして隣りの地図に切り替え


METAR-TAF: